sensor_id;sensor_type;location;lat;lon;timestamp;P1;durP1;ratioP1;P2;durP2;ratioP2
76712;SDS011;65640;43.154;25.658;2023-03-16T00:01:59;21.90;;;8.48;;
76712;SDS011;65640;43.154;25.658;2023-03-16T00:04:25;16.10;;;7.50;;
76712;SDS011;65640;43.154;25.658;2023-03-16T00:06:50;8.05;;;6.75;;
76712;SDS011;65640;43.154;25.658;2023-03-16T00:09:15;10.13;;;7.30;;
76712;SDS011;65640;43.154;25.658;2023-03-16T00:11:41;11.90;;;7.68;;
76712;SDS011;65640;43.154;25.658;2023-03-16T00:14:07;12.45;;;7.75;;
76712;SDS011;65640;43.154;25.658;2023-03-16T00:16:32;11.55;;;8.07;;
76712;SDS011;65640;43.154;25.658;2023-03-16T00:18:59;15.05;;;8.88;;
76712;SDS011;65640;43.154;25.658;2023-03-16T00:21:27;48.05;;;13.52;;
76712;SDS011;65640;43.154;25.658;2023-03-16T00:23:56;12.60;;;7.63;;
76712;SDS011;65640;43.154;25.658;2023-03-16T00:26:23;13.48;;;7.65;;
76712;SDS011;65640;43.154;25.658;2023-03-16T00:28:49;18.38;;;9.27;;
76712;SDS011;65640;43.154;25.658;2023-03-16T00:31:18;14.75;;;8.82;;
76712;SDS011;65640;43.154;25.658;2023-03-16T00:33:44;39.13;;;11.20;;
76712;SDS011;65640;43.154;25.658;2023-03-16T00:36:10;17.23;;;8.77;;
76712;SDS011;65640;43.154;25.658;2023-03-16T00:38:37;13.38;;;8.25;;
76712;SDS011;65640;43.154;25.658;2023-03-16T00:41:05;24.83;;;10.65;;
76712;SDS011;65640;43.154;25.658;2023-03-16T00:43:33;33.53;;;11.68;;
76712;SDS011;65640;43.154;25.658;2023-03-16T00:46:05;17.08;;;8.80;;
76712;SDS011;65640;43.154;25.658;2023-03-16T00:48:32;19.45;;;10.43;;
76712;SDS011;65640;43.154;25.658;2023-03-16T00:50:59;19.50;;;9.98;;
76712;SDS011;65640;43.154;25.658;2023-03-16T00:53:31;18.48;;;9.40;;
76712;SDS011;65640;43.154;25.658;2023-03-16T00:55:57;25.08;;;11.40;;
76712;SDS011;65640;43.154;25.658;2023-03-16T00:58:23;13.93;;;8.05;;
76712;SDS011;65640;43.154;25.658;2023-03-16T01:00:48;22.25;;;10.02;;
76712;SDS011;65640;43.154;25.658;2023-03-16T01:03:15;30.38;;;12.70;;
76712;SDS011;65640;43.154;25.658;2023-03-16T01:05:41;35.85;;;14.27;;
76712;SDS011;65640;43.154;25.658;2023-03-16T01:08:09;21.70;;;11.13;;
76712;SDS011;65640;43.154;25.658;2023-03-16T01:10:35;16.08;;;8.57;;
76712;SDS011;65640;43.154;25.658;2023-03-16T01:13:00;8.18;;;5.20;;
76712;SDS011;65640;43.154;25.658;2023-03-16T01:15:27;10.35;;;5.93;;
76712;SDS011;65640;43.154;25.658;2023-03-16T01:17:53;10.23;;;5.40;;
76712;SDS011;65640;43.154;25.658;2023-03-16T01:20:19;8.68;;;5.95;;
76712;SDS011;65640;43.154;25.658;2023-03-16T01:22:44;11.30;;;6.45;;
76712;SDS011;65640;43.154;25.658;2023-03-16T01:25:10;7.97;;;6.07;;
76712;SDS011;65640;43.154;25.658;2023-03-16T01:27:36;8.63;;;6.88;;
76712;SDS011;65640;43.154;25.658;2023-03-16T01:30:02;12.38;;;7.63;;
76712;SDS011;65640;43.154;25.658;2023-03-16T01:32:29;13.52;;;8.25;;
76712;SDS011;65640;43.154;25.658;2023-03-16T01:34:55;16.27;;;10.73;;
76712;SDS011;65640;43.154;25.658;2023-03-16T01:37:20;16.90;;;8.98;;
76712;SDS011;65640;43.154;25.658;2023-03-16T01:39:47;13.27;;;10.35;;
76712;SDS011;65640;43.154;25.658;2023-03-16T01:42:13;19.13;;;12.02;;
76712;SDS011;65640;43.154;25.658;2023-03-16T01:45:52;14.50;;;11.30;;
76712;SDS011;65640;43.154;25.658;2023-03-16T01:47:53;20.50;;;12.27;;
76712;SDS011;65640;43.154;25.658;2023-03-16T01:50:22;17.77;;;11.15;;
76712;SDS011;65640;43.154;25.658;2023-03-16T01:52:48;11.90;;;8.82;;
76712;SDS011;65640;43.154;25.658;2023-03-16T01:55:14;21.42;;;11.82;;
76712;SDS011;65640;43.154;25.658;2023-03-16T01:57:40;31.83;;;17.35;;
76712;SDS011;65640;43.154;25.658;2023-03-16T02:00:16;17.73;;;12.85;;
76712;SDS011;65640;43.154;25.658;2023-03-16T02:02:54;19.02;;;12.18;;
76712;SDS011;65640;43.154;25.658;2023-03-16T02:05:23;11.40;;;9.65;;
76712;SDS011;65640;43.154;25.658;2023-03-16T02:07:54;17.98;;;10.25;;
76712;SDS011;65640;43.154;25.658;2023-03-16T02:10:23;23.45;;;12.57;;
76712;SDS011;65640;43.154;25.658;2023-03-16T02:12:50;15.90;;;9.80;;
76712;SDS011;65640;43.154;25.658;2023-03-16T02:17:43;15.95;;;10.45;;
76712;SDS011;65640;43.154;25.658;2023-03-16T02:22:48;12.45;;;9.45;;
76712;SDS011;65640;43.154;25.658;2023-03-16T02:25:19;11.38;;;9.40;;
76712;SDS011;65640;43.154;25.658;2023-03-16T02:30:39;23.73;;;10.10;;
76712;SDS011;65640;43.154;25.658;2023-03-16T02:33:05;17.52;;;8.65;;
76712;SDS011;65640;43.154;25.658;2023-03-16T02:35:31;14.13;;;10.50;;
76712;SDS011;65640;43.154;25.658;2023-03-16T02:37:57;9.77;;;7.78;;
76712;SDS011;65640;43.154;25.658;2023-03-16T02:40:24;13.30;;;9.63;;
76712;SDS011;65640;43.154;25.658;2023-03-16T02:42:54;10.25;;;8.15;;
76712;SDS011;65640;43.154;25.658;2023-03-16T02:45:26;8.35;;;6.28;;
76712;SDS011;65640;43.154;25.658;2023-03-16T02:47:57;9.52;;;7.70;;
76712;SDS011;65640;43.154;25.658;2023-03-16T02:50:28;8.45;;;7.18;;
76712;SDS011;65640;43.154;25.658;2023-03-16T02:52:53;7.70;;;6.60;;
76712;SDS011;65640;43.154;25.658;2023-03-16T02:55:19;6.93;;;5.90;;
76712;SDS011;65640;43.154;25.658;2023-03-16T02:57:45;9.23;;;6.47;;
76712;SDS011;65640;43.154;25.658;2023-03-16T03:00:12;8.07;;;7.35;;
76712;SDS011;65640;43.154;25.658;2023-03-16T03:02:43;8.02;;;6.55;;
76712;SDS011;65640;43.154;25.658;2023-03-16T03:05:09;8.18;;;7.05;;
76712;SDS011;65640;43.154;25.658;2023-03-16T03:07:36;6.90;;;6.30;;
76712;SDS011;65640;43.154;25.658;2023-03-16T03:10:02;10.57;;;7.07;;
76712;SDS011;65640;43.154;25.658;2023-03-16T03:12:30;10.50;;;8.27;;
76712;SDS011;65640;43.154;25.658;2023-03-16T03:14:58;7.38;;;6.60;;
76712;SDS011;65640;43.154;25.658;2023-03-16T03:17:24;7.10;;;6.25;;
76712;SDS011;65640;43.154;25.658;2023-03-16T03:19:54;7.05;;;6.38;;
76712;SDS011;65640;43.154;25.658;2023-03-16T03:22:24;6.55;;;5.95;;
76712;SDS011;65640;43.154;25.658;2023-03-16T03:24:51;9.13;;;7.18;;
76712;SDS011;65640;43.154;25.658;2023-03-16T03:27:17;8.73;;;6.53;;
76712;SDS011;65640;43.154;25.658;2023-03-16T03:29:43;7.22;;;5.50;;
76712;SDS011;65640;43.154;25.658;2023-03-16T03:32:09;10.05;;;6.50;;
76712;SDS011;65640;43.154;25.658;2023-03-16T03:34:35;4.78;;;4.38;;
76712;SDS011;65640;43.154;25.658;2023-03-16T03:37:00;4.93;;;4.35;;
76712;SDS011;65640;43.154;25.658;2023-03-16T03:39:26;6.22;;;5.72;;
76712;SDS011;65640;43.154;25.658;2023-03-16T03:41:51;4.72;;;4.22;;
76712;SDS011;65640;43.154;25.658;2023-03-16T03:44:20;5.15;;;4.75;;
76712;SDS011;65640;43.154;25.658;2023-03-16T03:46:47;4.95;;;4.55;;
76712;SDS011;65640;43.154;25.658;2023-03-16T03:49:12;6.97;;;4.38;;
76712;SDS011;65640;43.154;25.658;2023-03-16T03:51:38;5.38;;;4.70;;
76712;SDS011;65640;43.154;25.658;2023-03-16T03:54:05;5.80;;;5.30;;
76712;SDS011;65640;43.154;25.658;2023-03-16T03:56:31;6.75;;;4.07;;
76712;SDS011;65640;43.154;25.658;2023-03-16T03:58:57;4.20;;;3.80;;
76712;SDS011;65640;43.154;25.658;2023-03-16T04:01:22;5.50;;;4.50;;
76712;SDS011;65640;43.154;25.658;2023-03-16T04:03:47;4.57;;;4.18;;
76712;SDS011;65640;43.154;25.658;2023-03-16T04:06:13;4.80;;;4.40;;
76712;SDS011;65640;43.154;25.658;2023-03-16T04:08:39;3.90;;;3.53;;
76712;SDS011;65640;43.154;25.658;2023-03-16T04:11:04;3.97;;;3.67;;
76712;SDS011;65640;43.154;25.658;2023-03-16T04:13:29;6.28;;;4.13;;
76712;SDS011;65640;43.154;25.658;2023-03-16T04:15:58;11.10;;;5.63;;
76712;SDS011;65640;43.154;25.658;2023-03-16T04:18:26;7.63;;;4.53;;
76712;SDS011;65640;43.154;25.658;2023-03-16T04:20:53;16.80;;;8.15;;
76712;SDS011;65640;43.154;25.658;2023-03-16T04:23:19;7.90;;;5.28;;
76712;SDS011;65640;43.154;25.658;2023-03-16T04:25:45;10.23;;;5.32;;
76712;SDS011;65640;43.154;25.658;2023-03-16T04:28:11;7.20;;;4.78;;
76712;SDS011;65640;43.154;25.658;2023-03-16T04:30:37;9.50;;;6.40;;
76712;SDS011;65640;43.154;25.658;2023-03-16T04:33:02;6.68;;;5.15;;
76712;SDS011;65640;43.154;25.658;2023-03-16T04:35:28;9.02;;;5.93;;
76712;SDS011;65640;43.154;25.658;2023-03-16T04:37:54;4.63;;;4.18;;
76712;SDS011;65640;43.154;25.658;2023-03-16T04:40:19;6.45;;;5.00;;
76712;SDS011;65640;43.154;25.658;2023-03-16T04:42:45;5.68;;;4.07;;
76712;SDS011;65640;43.154;25.658;2023-03-16T04:45:12;7.90;;;4.38;;
76712;SDS011;65640;43.154;25.658;2023-03-16T04:47:39;4.47;;;4.18;;
76712;SDS011;65640;43.154;25.658;2023-03-16T04:50:05;4.82;;;3.63;;
76712;SDS011;65640;43.154;25.658;2023-03-16T04:52:31;7.22;;;5.05;;
76712;SDS011;65640;43.154;25.658;2023-03-16T04:54:56;9.38;;;5.00;;
76712;SDS011;65640;43.154;25.658;2023-03-16T04:57:22;5.13;;;4.53;;
76712;SDS011;65640;43.154;25.658;2023-03-16T04:59:48;8.65;;;6.40;;
76712;SDS011;65640;43.154;25.658;2023-03-16T05:02:13;11.02;;;6.20;;
76712;SDS011;65640;43.154;25.658;2023-03-16T05:04:39;8.70;;;5.57;;
76712;SDS011;65640;43.154;25.658;2023-03-16T05:07:04;10.32;;;5.40;;
76712;SDS011;65640;43.154;25.658;2023-03-16T05:09:30;6.70;;;5.25;;
76712;SDS011;65640;43.154;25.658;2023-03-16T05:11:55;9.10;;;5.53;;
76712;SDS011;65640;43.154;25.658;2023-03-16T05:14:21;8.20;;;5.75;;
76712;SDS011;65640;43.154;25.658;2023-03-16T05:16:46;6.60;;;5.03;;
76712;SDS011;65640;43.154;25.658;2023-03-16T05:19:11;8.27;;;5.20;;
76712;SDS011;65640;43.154;25.658;2023-03-16T05:21:37;7.13;;;5.38;;
76712;SDS011;65640;43.154;25.658;2023-03-16T05:24:05;7.28;;;5.38;;
76712;SDS011;65640;43.154;25.658;2023-03-16T05:26:32;5.97;;;5.15;;
76712;SDS011;65640;43.154;25.658;2023-03-16T05:28:58;8.05;;;5.38;;
76712;SDS011;65640;43.154;25.658;2023-03-16T05:31:24;7.40;;;5.45;;
76712;SDS011;65640;43.154;25.658;2023-03-16T05:33:52;5.10;;;4.60;;
76712;SDS011;65640;43.154;25.658;2023-03-16T05:36:18;6.43;;;5.53;;
76712;SDS011;65640;43.154;25.658;2023-03-16T05:38:44;14.00;;;6.82;;
76712;SDS011;65640;43.154;25.658;2023-03-16T05:41:10;6.65;;;4.90;;
76712;SDS011;65640;43.154;25.658;2023-03-16T05:43:35;8.57;;;5.43;;
76712;SDS011;65640;43.154;25.658;2023-03-16T05:46:01;9.95;;;5.70;;
76712;SDS011;65640;43.154;25.658;2023-03-16T05:48:27;6.85;;;5.97;;
76712;SDS011;65640;43.154;25.658;2023-03-16T05:50:53;7.97;;;5.20;;
76712;SDS011;65640;43.154;25.658;2023-03-16T05:53:19;8.07;;;4.72;;
76712;SDS011;65640;43.154;25.658;2023-03-16T05:55:50;5.00;;;4.47;;
76712;SDS011;65640;43.154;25.658;2023-03-16T05:58:16;9.25;;;6.30;;
76712;SDS011;65640;43.154;25.658;2023-03-16T06:00:41;6.03;;;5.10;;
76712;SDS011;65640;43.154;25.658;2023-03-16T06:03:07;7.80;;;5.43;;
76712;SDS011;65640;43.154;25.658;2023-03-16T06:05:32;7.03;;;4.38;;
76712;SDS011;65640;43.154;25.658;2023-03-16T06:07:57;6.07;;;5.53;;
76712;SDS011;65640;43.154;25.658;2023-03-16T06:10:23;6.07;;;5.53;;
76712;SDS011;65640;43.154;25.658;2023-03-16T06:15:15;5.47;;;4.97;;
76712;SDS011;65640;43.154;25.658;2023-03-16T06:17:41;5.20;;;4.75;;
76712;SDS011;65640;43.154;25.658;2023-03-16T06:20:07;9.63;;;5.50;;
76712;SDS011;65640;43.154;25.658;2023-03-16T06:22:35;12.52;;;5.93;;
76712;SDS011;65640;43.154;25.658;2023-03-16T06:25:02;5.72;;;5.15;;
76712;SDS011;65640;43.154;25.658;2023-03-16T06:27:28;8.55;;;5.10;;
76712;SDS011;65640;43.154;25.658;2023-03-16T06:29:53;5.40;;;4.90;;
76712;SDS011;65640;43.154;25.658;2023-03-16T06:32:19;6.57;;;5.43;;
76712;SDS011;65640;43.154;25.658;2023-03-16T06:34:46;7.72;;;6.18;;
76712;SDS011;65640;43.154;25.658;2023-03-16T06:37:11;10.35;;;7.10;;
76712;SDS011;65640;43.154;25.658;2023-03-16T06:39:37;6.75;;;4.55;;
76712;SDS011;65640;43.154;25.658;2023-03-16T06:42:04;7.80;;;4.80;;
76712;SDS011;65640;43.154;25.658;2023-03-16T06:44:29;10.98;;;5.03;;
76712;SDS011;65640;43.154;25.658;2023-03-16T06:46:55;6.97;;;4.50;;
76712;SDS011;65640;43.154;25.658;2023-03-16T06:49:21;4.15;;;3.20;;
76712;SDS011;65640;43.154;25.658;2023-03-16T06:51:47;7.07;;;4.38;;
76712;SDS011;65640;43.154;25.658;2023-03-16T06:54:12;4.30;;;4.00;;
76712;SDS011;65640;43.154;25.658;2023-03-16T06:56:38;4.28;;;3.90;;
76712;SDS011;65640;43.154;25.658;2023-03-16T06:59:03;4.10;;;3.80;;
76712;SDS011;65640;43.154;25.658;2023-03-16T07:01:28;4.40;;;4.00;;
76712;SDS011;65640;43.154;25.658;2023-03-16T07:03:54;4.75;;;4.25;;
76712;SDS011;65640;43.154;25.658;2023-03-16T07:06:19;5.32;;;4.45;;
76712;SDS011;65640;43.154;25.658;2023-03-16T07:08:46;3.47;;;3.17;;
76712;SDS011;65640;43.154;25.658;2023-03-16T07:11:11;4.82;;;3.55;;
76712;SDS011;65640;43.154;25.658;2023-03-16T07:16:04;3.63;;;3.33;;
76712;SDS011;65640;43.154;25.658;2023-03-16T07:18:30;3.10;;;2.33;;
76712;SDS011;65640;43.154;25.658;2023-03-16T07:20:55;2.92;;;2.78;;
76712;SDS011;65640;43.154;25.658;2023-03-16T07:23:22;2.90;;;2.70;;
76712;SDS011;65640;43.154;25.658;2023-03-16T07:25:49;4.07;;;2.97;;
76712;SDS011;65640;43.154;25.658;2023-03-16T07:28:16;4.13;;;3.72;;
76712;SDS011;65640;43.154;25.658;2023-03-16T07:30:43;4.40;;;3.65;;
76712;SDS011;65640;43.154;25.658;2023-03-16T07:33:09;3.72;;;3.42;;
76712;SDS011;65640;43.154;25.658;2023-03-16T07:35:36;5.80;;;3.13;;
76712;SDS011;65640;43.154;25.658;2023-03-16T07:38:01;4.63;;;4.25;;
76712;SDS011;65640;43.154;25.658;2023-03-16T07:40:27;6.07;;;5.38;;
76712;SDS011;65640;43.154;25.658;2023-03-16T07:42:53;4.28;;;3.83;;
76712;SDS011;65640;43.154;25.658;2023-03-16T07:45:18;6.10;;;3.78;;
76712;SDS011;65640;43.154;25.658;2023-03-16T07:47:44;3.85;;;3.55;;
76712;SDS011;65640;43.154;25.658;2023-03-16T07:50:10;4.05;;;3.60;;
76712;SDS011;65640;43.154;25.658;2023-03-16T07:52:36;4.07;;;3.28;;
76712;SDS011;65640;43.154;25.658;2023-03-16T07:55:02;4.55;;;4.15;;
76712;SDS011;65640;43.154;25.658;2023-03-16T07:57:27;3.10;;;2.90;;
76712;SDS011;65640;43.154;25.658;2023-03-16T07:59:53;6.43;;;3.42;;
76712;SDS011;65640;43.154;25.658;2023-03-16T08:02:19;6.07;;;4.35;;
76712;SDS011;65640;43.154;25.658;2023-03-16T08:04:45;5.63;;;3.30;;
76712;SDS011;65640;43.154;25.658;2023-03-16T08:07:12;2.83;;;2.30;;
76712;SDS011;65640;43.154;25.658;2023-03-16T08:09:39;3.00;;;2.80;;
76712;SDS011;65640;43.154;25.658;2023-03-16T08:12:06;3.90;;;3.60;;
76712;SDS011;65640;43.154;25.658;2023-03-16T08:17:01;3.35;;;2.70;;
76712;SDS011;65640;43.154;25.658;2023-03-16T08:19:27;7.45;;;4.10;;
76712;SDS011;65640;43.154;25.658;2023-03-16T08:21:53;5.72;;;2.53;;
76712;SDS011;65640;43.154;25.658;2023-03-16T08:24:19;4.55;;;3.13;;
76712;SDS011;65640;43.154;25.658;2023-03-16T08:26:44;4.93;;;3.00;;
76712;SDS011;65640;43.154;25.658;2023-03-16T08:29:10;7.50;;;4.03;;
76712;SDS011;65640;43.154;25.658;2023-03-16T08:31:35;4.28;;;3.00;;
76712;SDS011;65640;43.154;25.658;2023-03-16T08:34:01;4.85;;;3.28;;
76712;SDS011;65640;43.154;25.658;2023-03-16T08:36:27;6.10;;;3.00;;
76712;SDS011;65640;43.154;25.658;2023-03-16T08:38:54;7.22;;;3.92;;
76712;SDS011;65640;43.154;25.658;2023-03-16T08:41:20;5.45;;;3.70;;
76712;SDS011;65640;43.154;25.658;2023-03-16T08:43:46;7.95;;;3.70;;
76712;SDS011;65640;43.154;25.658;2023-03-16T08:46:12;4.28;;;3.25;;
76712;SDS011;65640;43.154;25.658;2023-03-16T08:48:38;4.07;;;3.70;;
76712;SDS011;65640;43.154;25.658;2023-03-16T08:51:05;7.43;;;3.10;;
76712;SDS011;65640;43.154;25.658;2023-03-16T08:53:32;3.03;;;2.78;;
76712;SDS011;65640;43.154;25.658;2023-03-16T08:56:04;4.47;;;2.22;;
76712;SDS011;65640;43.154;25.658;2023-03-16T08:58:32;2.72;;;2.30;;
76712;SDS011;65640;43.154;25.658;2023-03-16T09:01:02;4.57;;;3.30;;
76712;SDS011;65640;43.154;25.658;2023-03-16T09:03:29;2.63;;;2.42;;
76712;SDS011;65640;43.154;25.658;2023-03-16T09:06:02;3.25;;;1.88;;
76712;SDS011;65640;43.154;25.658;2023-03-16T09:08:30;3.35;;;1.58;;
76712;SDS011;65640;43.154;25.658;2023-03-16T09:10:59;2.95;;;1.98;;
76712;SDS011;65640;43.154;25.658;2023-03-16T09:13:27;3.15;;;2.08;;
76712;SDS011;65640;43.154;25.658;2023-03-16T09:15:53;3.17;;;2.13;;
76712;SDS011;65640;43.154;25.658;2023-03-16T09:18:18;2.33;;;2.13;;
76712;SDS011;65640;43.154;25.658;2023-03-16T09:20:44;2.15;;;1.90;;
76712;SDS011;65640;43.154;25.658;2023-03-16T09:23:12;3.83;;;1.88;;
76712;SDS011;65640;43.154;25.658;2023-03-16T09:25:38;2.28;;;1.92;;
76712;SDS011;65640;43.154;25.658;2023-03-16T09:28:04;2.38;;;1.77;;
76712;SDS011;65640;43.154;25.658;2023-03-16T09:30:30;3.40;;;2.00;;
76712;SDS011;65640;43.154;25.658;2023-03-16T09:32:56;4.32;;;1.60;;
76712;SDS011;65640;43.154;25.658;2023-03-16T09:35:22;2.85;;;1.88;;
76712;SDS011;65640;43.154;25.658;2023-03-16T09:37:47;3.67;;;1.95;;
76712;SDS011;65640;43.154;25.658;2023-03-16T09:40:19;3.10;;;1.75;;
76712;SDS011;65640;43.154;25.658;2023-03-16T09:48:16;2.70;;;2.10;;
76712;SDS011;65640;43.154;25.658;2023-03-16T09:50:44;4.40;;;2.35;;
76712;SDS011;65640;43.154;25.658;2023-03-16T09:55:59;1.25;;;1.15;;
76712;SDS011;65640;43.154;25.658;2023-03-16T09:58:27;1.95;;;1.80;;
76712;SDS011;65640;43.154;25.658;2023-03-16T10:00:56;2.15;;;2.05;;
76712;SDS011;65640;43.154;25.658;2023-03-16T10:03:45;1.88;;;1.55;;
76712;SDS011;65640;43.154;25.658;2023-03-16T10:06:23;7.45;;;3.90;;
76712;SDS011;65640;43.154;25.658;2023-03-16T10:08:51;1.05;;;1.05;;
76712;SDS011;65640;43.154;25.658;2023-03-16T10:11:45;2.20;;;1.90;;
76712;SDS011;65640;43.154;25.658;2023-03-16T10:14:24;1.67;;;1.58;;
76712;SDS011;65640;43.154;25.658;2023-03-16T10:21:58;1.73;;;1.63;;
76712;SDS011;65640;43.154;25.658;2023-03-16T10:24:51;2.50;;;2.15;;
76712;SDS011;65640;43.154;25.658;2023-03-16T10:27:29;3.78;;;2.10;;
76712;SDS011;65640;43.154;25.658;2023-03-16T10:29:57;4.57;;;3.05;;
76712;SDS011;65640;43.154;25.658;2023-03-16T10:32:29;2.85;;;2.60;;
76712;SDS011;65640;43.154;25.658;2023-03-16T10:34:57;4.57;;;4.13;;
76712;SDS011;65640;43.154;25.658;2023-03-16T10:37:30;1.50;;;1.40;;
76712;SDS011;65640;43.154;25.658;2023-03-16T10:39:57;1.30;;;1.25;;
76712;SDS011;65640;43.154;25.658;2023-03-16T10:44:55;1.27;;;1.20;;
76712;SDS011;65640;43.154;25.658;2023-03-16T10:47:23;1.67;;;1.58;;
76712;SDS011;65640;43.154;25.658;2023-03-16T10:49:52;1.40;;;1.30;;
76712;SDS011;65640;43.154;25.658;2023-03-16T10:52:22;1.13;;;1.13;;
76712;SDS011;65640;43.154;25.658;2023-03-16T10:57:57;1.77;;;1.42;;
76712;SDS011;65640;43.154;25.658;2023-03-16T11:00:27;2.42;;;2.28;;
76712;SDS011;65640;43.154;25.658;2023-03-16T11:02:55;1.92;;;1.83;;
76712;SDS011;65640;43.154;25.658;2023-03-16T11:07:50;2.55;;;2.20;;
76712;SDS011;65640;43.154;25.658;2023-03-16T11:12:52;2.25;;;2.00;;
76712;SDS011;65640;43.154;25.658;2023-03-16T11:15:17;1.80;;;1.70;;
76712;SDS011;65640;43.154;25.658;2023-03-16T11:17:44;1.90;;;1.75;;
76712;SDS011;65640;43.154;25.658;2023-03-16T11:20:17;2.08;;;1.92;;
76712;SDS011;65640;43.154;25.658;2023-03-16T11:22:47;2.28;;;1.75;;
76712;SDS011;65640;43.154;25.658;2023-03-16T11:30:59;2.25;;;1.92;;
76712;SDS011;65640;43.154;25.658;2023-03-16T11:33:30;2.20;;;2.03;;
76712;SDS011;65640;43.154;25.658;2023-03-16T11:43:55;3.17;;;2.97;;
76712;SDS011;65640;43.154;25.658;2023-03-16T11:46:24;3.10;;;2.80;;
76712;SDS011;65640;43.154;25.658;2023-03-16T11:54:52;2.80;;;1.73;;
76712;SDS011;65640;43.154;25.658;2023-03-16T12:00:28;2.38;;;2.28;;
76712;SDS011;65640;43.154;25.658;2023-03-16T12:16:32;2.88;;;1.90;;
76712;SDS011;65640;43.154;25.658;2023-03-16T12:19:06;2.15;;;1.75;;
76712;SDS011;65640;43.154;25.658;2023-03-16T12:21:42;4.68;;;4.05;;
76712;SDS011;65640;43.154;25.658;2023-03-16T12:24:15;5.82;;;2.40;;
76712;SDS011;65640;43.154;25.658;2023-03-16T12:26:44;2.97;;;2.78;;
76712;SDS011;65640;43.154;25.658;2023-03-16T12:29:23;2.60;;;2.33;;
76712;SDS011;65640;43.154;25.658;2023-03-16T12:32:02;4.20;;;3.70;;
76712;SDS011;65640;43.154;25.658;2023-03-16T12:40:02;2.80;;;2.60;;
76712;SDS011;65640;43.154;25.658;2023-03-16T12:48:32;2.78;;;2.30;;
76712;SDS011;65640;43.154;25.658;2023-03-16T12:51:03;1.83;;;1.73;;
76712;SDS011;65640;43.154;25.658;2023-03-16T12:53:41;3.00;;;2.80;;
76712;SDS011;65640;43.154;25.658;2023-03-16T12:56:28;3.67;;;3.40;;
76712;SDS011;65640;43.154;25.658;2023-03-16T12:58:56;2.42;;;2.22;;
76712;SDS011;65640;43.154;25.658;2023-03-16T13:01:28;3.88;;;3.63;;
76712;SDS011;65640;43.154;25.658;2023-03-16T13:04:04;4.80;;;3.47;;
76712;SDS011;65640;43.154;25.658;2023-03-16T13:06:36;3.40;;;3.10;;
76712;SDS011;65640;43.154;25.658;2023-03-16T13:09:07;6.57;;;4.25;;
76712;SDS011;65640;43.154;25.658;2023-03-16T13:11:40;3.05;;;2.70;;
76712;SDS011;65640;43.154;25.658;2023-03-16T13:14:12;3.88;;;3.58;;
76712;SDS011;65640;43.154;25.658;2023-03-16T13:16:41;3.67;;;3.38;;
76712;SDS011;65640;43.154;25.658;2023-03-16T13:19:42;3.17;;;2.95;;
76712;SDS011;65640;43.154;25.658;2023-03-16T13:22:19;3.38;;;3.15;;
76712;SDS011;65640;43.154;25.658;2023-03-16T13:24:54;3.33;;;3.03;;
76712;SDS011;65640;43.154;25.658;2023-03-16T13:27:35;4.18;;;3.42;;
76712;SDS011;65640;43.154;25.658;2023-03-16T13:30:14;5.10;;;3.15;;
76712;SDS011;65640;43.154;25.658;2023-03-16T13:32:44;4.65;;;4.22;;
76712;SDS011;65640;43.154;25.658;2023-03-16T13:37:41;3.55;;;2.70;;
76712;SDS011;65640;43.154;25.658;2023-03-16T13:42:45;6.95;;;4.93;;
76712;SDS011;65640;43.154;25.658;2023-03-16T13:45:14;6.78;;;4.45;;
76712;SDS011;65640;43.154;25.658;2023-03-16T13:47:43;3.50;;;3.30;;
76712;SDS011;65640;43.154;25.658;2023-03-16T13:50:09;5.88;;;4.30;;
76712;SDS011;65640;43.154;25.658;2023-03-16T13:52:36;4.53;;;4.22;;
76712;SDS011;65640;43.154;25.658;2023-03-16T13:55:06;4.32;;;3.40;;
76712;SDS011;65640;43.154;25.658;2023-03-16T13:57:47;2.78;;;2.58;;
76712;SDS011;65640;43.154;25.658;2023-03-16T14:00:20;2.72;;;2.63;;
76712;SDS011;65640;43.154;25.658;2023-03-16T14:02:56;3.35;;;3.03;;
76712;SDS011;65640;43.154;25.658;2023-03-16T14:07:57;3.17;;;3.00;;
76712;SDS011;65640;43.154;25.658;2023-03-16T14:10:29;6.15;;;3.30;;
76712;SDS011;65640;43.154;25.658;2023-03-16T14:12:57;5.82;;;5.10;;
76712;SDS011;65640;43.154;25.658;2023-03-16T14:15:32;4.20;;;3.45;;
76712;SDS011;65640;43.154;25.658;2023-03-16T14:18:07;7.30;;;4.90;;
76712;SDS011;65640;43.154;25.658;2023-03-16T14:20:40;9.82;;;6.60;;
76712;SDS011;65640;43.154;25.658;2023-03-16T14:23:14;20.67;;;10.18;;
76712;SDS011;65640;43.154;25.658;2023-03-16T14:25:42;13.45;;;8.57;;
76712;SDS011;65640;43.154;25.658;2023-03-16T14:28:08;12.88;;;8.15;;
76712;SDS011;65640;43.154;25.658;2023-03-16T14:30:38;13.95;;;8.55;;
76712;SDS011;65640;43.154;25.658;2023-03-16T14:33:28;6.35;;;4.88;;
76712;SDS011;65640;43.154;25.658;2023-03-16T14:35:56;9.40;;;6.22;;
76712;SDS011;65640;43.154;25.658;2023-03-16T14:41:03;10.60;;;7.03;;
76712;SDS011;65640;43.154;25.658;2023-03-16T14:43:46;7.00;;;6.30;;
76712;SDS011;65640;43.154;25.658;2023-03-16T14:46:23;10.23;;;6.80;;
76712;SDS011;65640;43.154;25.658;2023-03-16T14:48:58;12.50;;;7.63;;
76712;SDS011;65640;43.154;25.658;2023-03-16T14:51:25;8.93;;;7.88;;
76712;SDS011;65640;43.154;25.658;2023-03-16T14:53:50;8.25;;;7.45;;
76712;SDS011;65640;43.154;25.658;2023-03-16T14:56:16;5.47;;;4.97;;
76712;SDS011;65640;43.154;25.658;2023-03-16T14:58:41;5.10;;;4.32;;
76712;SDS011;65640;43.154;25.658;2023-03-16T15:01:09;5.57;;;5.07;;
76712;SDS011;65640;43.154;25.658;2023-03-16T15:03:41;5.65;;;5.15;;
76712;SDS011;65640;43.154;25.658;2023-03-16T15:08:34;4.68;;;4.28;;
76712;SDS011;65640;43.154;25.658;2023-03-16T15:11:07;4.13;;;3.83;;
76712;SDS011;65640;43.154;25.658;2023-03-16T15:13:33;3.25;;;3.00;;
76712;SDS011;65640;43.154;25.658;2023-03-16T15:16:08;4.30;;;4.00;;
76712;SDS011;65640;43.154;25.658;2023-03-16T15:18:35;7.30;;;4.43;;
76712;SDS011;65640;43.154;25.658;2023-03-16T15:21:03;4.45;;;4.00;;
76712;SDS011;65640;43.154;25.658;2023-03-16T15:23:37;4.70;;;4.13;;
76712;SDS011;65640;43.154;25.658;2023-03-16T15:26:03;6.65;;;5.22;;
76712;SDS011;65640;43.154;25.658;2023-03-16T15:28:31;6.15;;;5.18;;
76712;SDS011;65640;43.154;25.658;2023-03-16T15:30:58;4.65;;;4.28;;
76712;SDS011;65640;43.154;25.658;2023-03-16T15:33:25;5.38;;;4.88;;
76712;SDS011;65640;43.154;25.658;2023-03-16T15:35:52;4.35;;;4.03;;
76712;SDS011;65640;43.154;25.658;2023-03-16T15:38:23;5.95;;;5.20;;
76712;SDS011;65640;43.154;25.658;2023-03-16T15:43:16;4.60;;;4.20;;
76712;SDS011;65640;43.154;25.658;2023-03-16T15:45:47;5.10;;;4.18;;
76712;SDS011;65640;43.154;25.658;2023-03-16T15:48:13;4.30;;;3.90;;
76712;SDS011;65640;43.154;25.658;2023-03-16T15:50:43;4.70;;;4.30;;
76712;SDS011;65640;43.154;25.658;2023-03-16T15:53:23;4.63;;;4.25;;
76712;SDS011;65640;43.154;25.658;2023-03-16T15:56:05;8.77;;;4.85;;
76712;SDS011;65640;43.154;25.658;2023-03-16T15:58:33;4.63;;;4.20;;
76712;SDS011;65640;43.154;25.658;2023-03-16T16:03:26;4.70;;;4.38;;
76712;SDS011;65640;43.154;25.658;2023-03-16T16:05:52;3.97;;;3.67;;
76712;SDS011;65640;43.154;25.658;2023-03-16T16:08:18;4.07;;;3.78;;
76712;SDS011;65640;43.154;25.658;2023-03-16T16:10:44;6.20;;;4.53;;
76712;SDS011;65640;43.154;25.658;2023-03-16T16:13:28;5.13;;;4.63;;
76712;SDS011;65640;43.154;25.658;2023-03-16T16:15:57;6.10;;;4.40;;
76712;SDS011;65640;43.154;25.658;2023-03-16T16:18:24;6.35;;;5.20;;
76712;SDS011;65640;43.154;25.658;2023-03-16T16:20:53;5.47;;;4.97;;
76712;SDS011;65640;43.154;25.658;2023-03-16T16:23:19;10.13;;;6.38;;